Time;durP1;ratioP1;P1;durP2;ratioP2;P2;SDS_P1;SDS_P2;PMS_P1;PMS_P2;Temp;Humidity;BMP_temperature;BMP_pressure;BME280_temperature;BME280_humidity;BME280_pressure;Samples;Min_cycle;Max_cycle;Signal;HPM_P1;HPM_P2
2022/07/01 00:02:17;;;;;;;24.25;11.50;;;;;;;23.95;100.00;98525.56;1660513;86;21023;-66
2022/07/01 00:04:42;;;;;;;28.40;12.70;;;;;;;23.93;100.00;98513.35;1660728;86;20998;-67
2022/07/01 00:07:10;;;;;;;26.40;11.80;;;;;;;23.90;100.00;98513.63;1660541;86;20987;-68
2022/07/01 00:09:36;;;;;;;32.20;13.30;;;;;;;23.85;100.00;98510.61;1660426;86;21043;-68
2022/07/01 00:12:02;;;;;;;27.27;11.95;;;;;;;23.79;100.00;98511.78;1660781;86;20983;-67
2022/07/01 00:14:28;;;;;;;26.27;12.30;;;;;;;23.75;100.00;98515.25;1660579;86;21046;-67
2022/07/01 00:16:53;;;;;;;23.38;10.80;;;;;;;23.71;100.00;98516.56;1665258;86;21018;-67
2022/07/01 00:19:19;;;;;;;30.95;13.00;;;;;;;23.67;100.00;98515.28;1668391;85;20966;-68
2022/07/01 00:21:45;;;;;;;26.35;12.88;;;;;;;23.65;100.00;98518.33;1668088;85;21002;-68
2022/07/01 00:24:11;;;;;;;19.32;10.08;;;;;;;23.65;100.00;98512.78;1668161;86;21017;-69
2022/07/01 00:26:37;;;;;;;23.50;9.45;;;;;;;23.66;100.00;98510.95;1668020;85;21047;-68
2022/07/01 00:29:03;;;;;;;16.00;8.63;;;;;;;23.67;100.00;98510.34;1668041;86;21062;-69
2022/07/01 00:31:29;;;;;;;16.95;9.13;;;;;;;23.70;100.00;98512.23;1668153;85;21462;-68
2022/07/01 00:33:55;;;;;;;17.15;9.35;;;;;;;23.68;100.00;98511.91;1668017;86;21070;-66
2022/07/01 00:36:21;;;;;;;17.27;8.65;;;;;;;23.70;100.00;98513.02;1668072;86;21026;-67
2022/07/01 00:38:47;;;;;;;24.32;9.33;;;;;;;23.68;100.00;98509.13;1668324;86;20990;-67
2022/07/01 00:41:13;;;;;;;21.60;9.70;;;;;;;23.66;100.00;98509.56;1668267;85;21041;-68
2022/07/01 00:43:39;;;;;;;16.77;9.08;;;;;;;23.63;100.00;98507.67;1668167;85;21031;-67
2022/07/01 00:46:05;;;;;;;18.60;8.70;;;;;;;23.65;100.00;98505.27;1668195;85;21022;-68
2022/07/01 00:48:34;;;;;;;17.23;8.53;;;;;;;23.66;100.00;98502.64;1668221;85;21511;-68
2022/07/01 00:51:00;;;;;;;16.85;8.65;;;;;;;23.74;100.00;98503.22;1667744;85;21042;-69
2022/07/01 00:53:26;;;;;;;16.85;8.73;;;;;;;23.86;100.00;98509.41;1668196;86;20991;-69
2022/07/01 00:55:51;;;;;;;17.05;8.75;;;;;;;23.94;100.00;98494.92;1668284;85;21450;-68
2022/07/01 00:58:17;;;;;;;15.72;8.45;;;;;;;23.99;100.00;98496.38;1668113;86;21518;-67
2022/07/01 01:00:43;;;;;;;14.18;8.38;;;;;;;24.03;100.00;98490.13;1668357;86;21503;-69
2022/07/01 01:03:10;;;;;;;16.60;9.13;;;;;;;24.06;100.00;98497.55;1668247;86;20982;-70
2022/07/01 01:05:39;;;;;;;15.93;7.60;;;;;;;24.06;100.00;98491.40;1667893;86;21479;-69
2022/07/01 01:08:05;;;;;;;15.05;7.92;;;;;;;24.13;100.00;98492.39;1667625;86;21490;-69
2022/07/01 01:10:31;;;;;;;14.10;8.50;;;;;;;24.16;100.00;98494.30;1645036;86;21007;-68
2022/07/01 01:12:57;;;;;;;10.40;7.83;;;;;;;24.21;100.00;98486.23;1668186;85;21006;-68
2022/07/01 01:15:23;;;;;;;15.80;8.60;;;;;;;24.20;100.00;98486.66;1668054;86;21002;-68
2022/07/01 01:17:49;;;;;;;15.45;9.58;;;;;;;24.19;100.00;98483.72;1661165;85;21007;-68
2022/07/01 01:20:19;;;;;;;13.22;7.97;;;;;;;24.17;100.00;98486.17;1660420;86;20990;-68
2022/07/01 01:22:46;;;;;;;13.95;8.65;;;;;;;24.11;100.00;98493.45;1660627;86;21031;-68
2022/07/01 01:25:12;;;;;;;15.50;9.68;;;;;;;24.00;100.00;98488.20;1660493;86;21066;-69
2022/07/01 01:27:38;;;;;;;15.48;8.75;;;;;;;23.93;100.00;98477.34;1660705;86;21480;-67
2022/07/01 01:30:10;;;;;;;20.12;8.88;;;;;;;23.90;100.00;98477.63;1660746;86;20994;-69
2022/07/01 01:32:36;;;;;;;;;;;;;;;23.86;100.00;98478.33;1662957;86;21002;-68
2022/07/01 01:35:02;;;;;;;18.45;9.03;;;;;;;23.79;100.00;98486.07;1660546;86;20422;-68
2022/07/01 01:37:28;;;;;;;16.50;8.70;;;;;;;23.71;100.00;98488.87;1660433;86;21046;-67
2022/07/01 01:39:54;;;;;;;14.85;8.80;;;;;;;23.66;100.00;98486.66;1660577;86;21506;-68
2022/07/01 01:42:21;;;;;;;16.12;9.40;;;;;;;23.64;100.00;98488.47;1660715;86;21057;-66
2022/07/01 01:44:47;;;;;;;13.75;9.13;;;;;;;23.59;100.00;98490.38;1660385;86;21063;-68
2022/07/01 01:47:13;;;;;;;14.90;9.25;;;;;;;23.54;100.00;98491.69;1660303;86;21531;-67
2022/07/01 01:49:38;;;;;;;15.80;9.23;;;;;;;23.55;100.00;98491.87;1660596;86;21460;-68
2022/07/01 01:52:04;;;;;;;14.20;9.08;;;;;;;23.48;100.00;98494.05;1660566;86;21542;-69
2022/07/01 01:54:30;;;;;;;16.62;8.43;;;;;;;23.38;100.00;98500.64;1660489;86;20999;-68
2022/07/01 01:56:56;;;;;;;17.60;10.25;;;;;;;23.28;100.00;98502.48;1660622;86;20998;-67
2022/07/01 01:59:22;;;;;;;17.27;10.18;;;;;;;23.22;100.00;98507.58;1661041;86;20992;-67
2022/07/01 02:01:48;;;;;;;22.13;9.95;;;;;;;23.16;100.00;98506.56;1660457;86;21104;-67
2022/07/01 02:04:13;;;;;;;18.07;10.08;;;;;;;23.10;100.00;98508.46;1660284;86;21039;-68
2022/07/01 02:06:42;;;;;;;15.50;8.88;;;;;;;23.05;100.00;98507.63;1660871;86;21047;-69
2022/07/01 02:09:08;;;;;;;18.95;9.55;;;;;;;23.04;100.00;98500.53;1660596;86;21479;-69
2022/07/01 02:11:35;;;;;;;28.25;11.83;;;;;;;23.07;100.00;98496.11;1660506;86;21527;-68
2022/07/01 02:14:01;;;;;;;21.50;10.85;;;;;;;23.03;100.00;98498.19;1660590;86;21062;-70
2022/07/01 02:16:27;;;;;;;22.95;11.22;;;;;;;22.96;100.00;98503.90;1660735;86;21558;-69
2022/07/01 02:18:53;;;;;;;22.17;11.10;;;;;;;22.89;100.00;98504.86;1660912;86;20999;-68
2022/07/01 02:21:19;;;;;;;20.05;10.88;;;;;;;22.83;100.00;98508.59;1660583;86;21526;-69
2022/07/01 02:23:44;;;;;;;18.80;10.72;;;;;;;22.79;100.00;98507.30;1660640;86;21157;-68
2022/07/01 02:26:10;;;;;;;29.25;12.45;;;;;;;22.76;100.00;98512.91;1660609;86;21180;-69
2022/07/01 02:28:36;;;;;;;23.15;11.83;;;;;;;22.78;100.00;98504.95;1660528;86;21515;-68
2022/07/01 02:31:04;;;;;;;20.27;10.65;;;;;;;22.80;100.00;98514.95;1660578;86;20982;-69
2022/07/01 02:33:31;;;;;;;25.92;12.58;;;;;;;22.80;100.00;98519.11;1660523;86;21586;-68
2022/07/01 02:35:57;;;;;;;21.35;11.25;;;;;;;22.76;100.00;98512.91;1660845;86;21027;-68
2022/07/01 02:38:23;;;;;;;17.17;10.23;;;;;;;22.71;100.00;98529.41;1660988;86;21061;-69
2022/07/01 02:40:49;;;;;;;23.32;10.80;;;;;;;22.61;100.00;98515.96;1660765;86;21071;-67
2022/07/01 02:43:15;;;;;;;16.60;10.08;;;;;;;22.54;100.00;98525.02;1660533;86;20975;-68
2022/07/01 02:45:42;;;;;;;21.55;10.75;;;;;;;22.56;100.00;98528.16;1660490;86;21011;-68
2022/07/01 02:48:08;;;;;;;23.22;10.55;;;;;;;22.56;100.00;98529.53;1660539;86;21049;-68
2022/07/01 02:50:34;;;;;;;22.67;10.95;;;;;;;22.57;100.00;98531.84;1660633;86;21051;-68
2022/07/01 02:53:00;;;;;;;21.37;10.82;;;;;;;22.59;100.00;98532.81;1660723;86;21027;-67
2022/07/01 02:55:26;;;;;;;21.68;11.68;;;;;;;22.60;100.00;98532.39;1660585;86;21539;-71
2022/07/01 02:57:51;;;;;;;20.17;10.28;;;;;;;22.61;100.00;98530.38;1660455;86;21031;-68
2022/07/01 03:00:19;;;;;;;19.40;11.43;;;;;;;22.62;100.00;98525.81;1660549;86;21046;-68
2022/07/01 03:02:45;;;;;;;19.67;10.53;;;;;;;22.69;100.00;98529.05;1660788;86;21003;-69
2022/07/01 03:05:11;;;;;;;23.55;11.60;;;;;;;22.77;100.00;98529.66;1660662;86;21049;-67
2022/07/01 03:07:38;;;;;;;23.45;11.63;;;;;;;22.93;100.00;98522.75;1660882;86;20959;-70
2022/07/01 03:10:05;;;;;;;22.77;10.05;;;;;;;23.01;100.00;98526.30;1660494;86;21055;-68
2022/07/01 03:12:34;;;;;;;26.77;10.80;;;;;;;23.14;100.00;98524.97;1660909;86;21019;-69
2022/07/01 03:15:11;;;;;;;21.97;10.93;;;;;;;23.32;100.00;98531.45;1660243;86;21034;-70
2022/07/01 03:17:39;;;;;;;19.30;10.78;;;;;;;23.48;100.00;98528.66;1664352;86;21049;-69
2022/07/01 03:20:09;;;;;;;21.20;11.10;;;;;;;23.68;100.00;98531.29;1668299;86;21467;-69
2022/07/01 03:22:35;;;;;;;21.25;11.22;;;;;;;23.84;100.00;98535.39;1668163;85;20982;-69
2022/07/01 03:25:02;;;;;;;20.68;10.18;;;;;;;24.03;100.00;98528.28;1668245;86;21041;-69
2022/07/01 03:27:28;;;;;;;18.52;9.53;;;;;;;24.26;100.00;98521.69;1668287;86;21467;-69
2022/07/01 03:29:54;;;;;;;20.92;11.68;;;;;;;24.52;100.00;98530.19;1668204;85;21455;-66
2022/07/01 03:32:20;;;;;;;18.90;9.75;;;;;;;24.82;100.00;98528.84;1668271;85;21041;-69
2022/07/01 03:34:48;;;;;;;17.52;9.93;;;;;;;25.10;100.00;98528.56;1668214;85;21483;-69
2022/07/01 03:37:14;;;;;;;17.55;10.32;;;;;;;25.38;100.00;98524.80;1668372;86;20978;-69
2022/07/01 03:39:40;;;;;;;23.12;10.93;;;;;;;25.68;100.00;98526.16;1668314;85;21018;-69
2022/07/01 03:42:07;;;;;;;15.75;9.43;;;;;;;25.98;100.00;98528.22;1668254;85;21009;-70
2022/07/01 03:44:33;;;;;;;19.70;9.53;;;;;;;26.32;100.00;98538.48;1668252;85;20994;-68
2022/07/01 03:46:59;;;;;;;18.23;10.03;;;;;;;26.68;100.00;98529.55;1668385;86;21006;-69
2022/07/01 03:49:25;;;;;;;30.60;10.05;;;;;;;27.01;100.00;98531.20;1668487;85;20983;-68
2022/07/01 03:51:51;;;;;;;18.55;10.03;;;;;;;27.40;100.00;98540.72;1668182;86;20990;-71
2022/07/01 03:57:08;;;;;;;15.65;9.55;;;;;;;28.00;99.52;98542.88;1668072;86;21035;-68
2022/07/01 03:59:36;;;;;;;16.05;9.18;;;;;;;28.38;95.74;98543.76;1667903;85;21026;-68
2022/07/01 04:02:03;;;;;;;15.75;8.33;;;;;;;28.70;92.45;98544.42;1668202;86;21479;-68
2022/07/01 04:04:29;;;;;;;15.53;9.08;;;;;;;28.98;89.71;98543.03;1668289;86;21483;-68
2022/07/01 04:06:59;;;;;;;21.23;10.68;;;;;;;29.30;85.95;98542.88;1668187;85;20990;-68
2022/07/01 04:09:24;;;;;;;19.40;10.15;;;;;;;29.60;83.60;98542.34;1667752;85;21070;-67
2022/07/01 04:11:52;;;;;;;23.02;10.82;;;;;;;29.87;81.08;98542.77;1668233;86;21089;-67
2022/07/01 04:14:17;;;;;;;21.17;10.08;;;;;;;30.02;79.03;98537.33;1668217;86;21542;-68
2022/07/01 04:16:44;;;;;;;26.90;9.70;;;;;;;30.03;77.65;98547.90;1667720;86;20991;-68
2022/07/01 04:19:10;;;;;;;16.20;9.23;;;;;;;30.27;76.21;98550.59;1668160;86;21463;-68
2022/07/01 04:24:24;;;;;;;22.02;10.23;;;;;;;30.90;69.46;98549.84;1668047;86;21057;-69
2022/07/01 04:26:53;;;;;;;23.40;9.88;;;;;;;30.99;66.73;98544.78;1668112;86;21042;-68
2022/07/01 04:29:19;;;;;;;15.18;9.10;;;;;;;31.07;66.27;98551.53;1668073;85;21163;-67
2022/07/01 04:31:45;;;;;;;18.95;9.40;;;;;;;31.31;64.92;98549.91;1645015;86;21455;-67
2022/07/01 04:34:11;;;;;;;16.00;8.80;;;;;;;31.53;64.04;98542.59;1668332;85;21510;-67
2022/07/01 04:36:37;;;;;;;22.62;9.98;;;;;;;31.85;62.96;98547.67;1668174;85;20986;-68
2022/07/01 04:39:04;;;;;;;16.77;9.35;;;;;;;32.22;61.56;98539.39;1667911;86;21002;-69
2022/07/01 04:44:14;;;;;;;18.15;8.70;;;;;;;32.70;58.65;98536.73;1668115;86;21114;-69
2022/07/01 04:46:40;;;;;;;17.10;8.93;;;;;;;32.94;57.30;98541.38;1668205;85;21074;-70
2022/07/01 04:49:05;;;;;;;17.30;10.03;;;;;;;33.17;56.18;98538.72;1668133;85;20982;-69
2022/07/01 04:51:34;;;;;;;17.45;9.70;;;;;;;33.50;54.35;98545.27;1668289;85;21010;-68
2022/07/01 04:53:59;;;;;;;17.82;10.13;;;;;;;33.67;53.57;98541.78;1667860;85;21026;-69
2022/07/01 04:56:26;;;;;;;19.02;9.08;;;;;;;33.91;52.90;98554.74;1668668;85;21002;-68
2022/07/01 04:58:52;;;;;;;19.65;9.93;;;;;;;34.23;51.60;98546.24;1668123;85;21038;-70
2022/07/01 05:01:18;;;;;;;22.05;9.80;;;;;;;34.50;50.39;98548.17;1668245;85;21010;-70
2022/07/01 05:03:44;;;;;;;17.87;9.95;;;;;;;34.65;48.83;98557.93;1668271;86;21543;-67
2022/07/01 05:06:10;;;;;;;19.27;10.03;;;;;;;34.73;48.06;98559.59;1668226;86;20974;-67
2022/07/01 05:08:35;;;;;;;22.58;10.48;;;;;;;34.73;47.54;98556.13;1668216;85;20954;-69
2022/07/01 05:11:01;;;;;;;27.22;11.03;;;;;;;34.72;47.41;98551.77;1667871;85;21119;-69
2022/07/01 05:13:27;;;;;;;22.87;10.75;;;;;;;34.73;47.19;98552.55;1668211;85;20986;-67
2022/07/01 05:15:53;;;;;;;24.92;11.28;;;;;;;34.83;46.91;98548.94;1667717;85;21030;-72
2022/07/01 05:23:47;;;;;;;25.45;10.35;;;;;;;35.13;46.86;98551.23;1639499;87;21091;-73
2022/07/01 05:26:16;;;;;;;22.10;10.88;;;;;;;35.32;46.58;98545.13;1640075;87;21465;-71
2022/07/01 05:28:41;;;;;;;29.02;11.85;;;;;;;35.45;46.46;98543.94;1639999;87;21087;-71
2022/07/01 05:31:07;;;;;;;26.48;12.28;;;;;;;35.25;46.75;98541.44;1639867;87;21513;-68
2022/07/01 05:33:32;;;;;;;35.55;13.98;;;;;;;35.60;46.33;98544.38;1639780;87;21016;-71
2022/07/01 05:35:58;;;;;;;45.98;14.65;;;;;;;35.81;45.95;98543.39;1639924;87;21008;-70
2022/07/01 05:38:24;;;;;;;21.20;11.55;;;;;;;36.11;45.67;98542.84;1639644;87;21031;-70
2022/07/01 05:40:52;;;;;;;39.95;14.60;;;;;;;36.24;44.70;98542.25;1639907;87;21507;-69
2022/07/01 05:43:18;;;;;;;28.20;11.75;;;;;;;36.24;44.66;98533.77;1639862;87;21044;-69
2022/07/01 05:45:44;;;;;;;21.50;11.80;;;;;;;36.18;44.39;98528.16;1639820;87;21012;-71
2022/07/01 05:48:09;;;;;;;22.27;11.95;;;;;;;36.17;44.27;98529.47;1639908;87;21060;-69
2022/07/01 05:50:35;;;;;;;37.15;15.13;;;;;;;36.08;43.94;98530.39;1639971;87;21480;-69
2022/07/01 05:53:01;;;;;;;29.52;14.00;;;;;;;35.77;44.35;98537.25;1639837;87;21544;-70
2022/07/01 05:55:27;;;;;;;31.25;14.63;;;;;;;35.91;44.41;98530.52;1639990;87;21473;-68
2022/07/01 05:57:52;;;;;;;65.17;18.62;;;;;;;36.14;44.16;98535.40;1639897;87;21465;-68
2022/07/01 06:00:18;;;;;;;34.85;15.53;;;;;;;36.38;43.48;98538.28;1639242;86;20968;-68
2022/07/01 06:02:44;;;;;;;47.58;16.73;;;;;;;36.41;43.20;98532.98;1634964;87;20960;-70
2022/07/01 06:05:10;;;;;;;40.63;16.87;;;;;;;36.19;43.35;98526.88;1634044;88;20979;-69
2022/07/01 06:07:38;;;;;;;45.05;18.02;;;;;;;36.38;42.85;98531.22;1633790;88;21119;-68
2022/07/01 06:10:07;;;;;;;59.30;18.67;;;;;;;35.93;43.18;98529.34;1636630;86;21519;-70
2022/07/01 06:12:32;;;;;;;33.13;18.07;;;;;;;35.81;42.81;98535.69;1636926;87;21492;-68
2022/07/01 06:14:58;;;;;;;49.03;17.02;;;;;;;35.64;42.85;98539.90;1639867;87;21031;-70
2022/07/01 06:17:24;;;;;;;32.20;16.85;;;;;;;35.42;43.36;98537.92;1643596;86;21141;-69
